createdAt,value
2022-12-03T00:04:36.253Z,0.6
2022-12-03T00:14:42.994Z,0.6
2022-12-03T00:34:42.927Z,0.7
2022-12-03T00:44:44.745Z,0.7
2022-12-03T00:54:46.744Z,0.7
2022-12-03T01:14:51.365Z,0.7
2022-12-03T01:24:53.562Z,0.7
2022-12-03T01:34:55.841Z,0.7
2022-12-03T01:44:57.547Z,0.7
2022-12-03T01:55:00.029Z,0.7
2022-12-03T02:05:01.821Z,0.7
2022-12-03T02:15:04.398Z,0.7
2022-12-03T02:25:06.774Z,0.6
2022-12-03T02:35:08.481Z,0.6
2022-12-03T02:45:10.529Z,0.6
2022-12-03T02:55:12.302Z,0.6
2022-12-03T03:05:14.060Z,0.6
2022-12-03T03:15:16.518Z,0.6
2022-12-03T03:25:18.595Z,0.6
2022-12-03T03:35:21.193Z,0.6
2022-12-03T03:45:28.641Z,0.5
2022-12-03T03:55:25.882Z,0.5
2022-12-03T04:05:27.865Z,0.5
2022-12-03T04:15:29.607Z,0.4
2022-12-03T04:35:34.193Z,0.4
2022-12-03T04:55:38.348Z,0.3
2022-12-03T05:05:40.205Z,0.4
2022-12-03T05:15:42.809Z,0.3
2022-12-03T05:25:44.990Z,0.3
2022-12-03T05:35:47.207Z,0.2
2022-12-03T05:45:49.023Z,0.2
2022-12-03T05:55:50.784Z,0.2
2022-12-03T06:05:53.439Z,0.1
2022-12-03T06:15:56.125Z,0.1
2022-12-03T06:25:57.767Z,0
2022-12-03T06:36:00.167Z,0
2022-12-03T06:46:02.865Z,0
2022-12-03T06:47:30.215Z,0
2022-12-03T07:06:14.957Z,0
2022-12-03T07:16:16.851Z,0
2022-12-03T07:26:19.406Z,-0.1
2022-12-03T07:46:23.885Z,0
2022-12-03T07:56:25.561Z,0
2022-12-03T08:06:27.664Z,0
2022-12-03T08:16:29.977Z,0
2022-12-03T08:36:33.815Z,0
2022-12-03T08:46:35.724Z,0
2022-12-03T08:56:37.877Z,0
2022-12-03T09:06:40.329Z,0
2022-12-03T09:16:42.388Z,0
2022-12-03T09:26:44.867Z,0
2022-12-03T09:36:46.946Z,0
2022-12-03T09:46:49.177Z,0
2022-12-03T09:56:51.206Z,0
2022-12-03T10:06:53.296Z,0
2022-12-03T10:16:55.630Z,0.1
2022-12-03T10:36:59.637Z,0.3
2022-12-03T10:47:01.441Z,0.2
2022-12-03T10:57:03.651Z,0.3
2022-12-03T11:07:05.614Z,0.3
2022-12-03T11:17:07.842Z,0.4
2022-12-03T11:27:09.735Z,0.4
2022-12-03T11:37:11.933Z,0.4
2022-12-03T11:47:13.897Z,0.5
2022-12-03T11:57:16.357Z,0.5
2022-12-03T12:07:18.595Z,0.6
2022-12-03T12:17:21.260Z,0.5
2022-12-03T12:27:23.725Z,0.6
2022-12-03T12:37:26.378Z,0.6
2022-12-03T12:47:28.538Z,0.6
2022-12-03T12:57:30.247Z,0.6
2022-12-03T13:07:32.624Z,0.4
2022-12-03T13:17:34.611Z,0.3
2022-12-03T13:27:36.828Z,0.3
2022-12-03T13:37:39.401Z,0.3
2022-12-03T13:47:41.863Z,0.3
2022-12-03T13:57:43.702Z,0.3
2022-12-03T14:07:45.997Z,0.2
2022-12-03T14:17:47.964Z,0.2
2022-12-03T14:37:52.704Z,0.1
2022-12-03T14:47:54.831Z,0.1
2022-12-03T14:57:56.933Z,0
2022-12-03T15:07:58.960Z,0
2022-12-03T15:18:01.472Z,0
2022-12-03T15:28:03.952Z,0
2022-12-03T15:38:06.467Z,0
2022-12-03T15:48:08.845Z,0
2022-12-03T15:58:10.659Z,-0.1
2022-12-03T16:08:12.659Z,-0.1
2022-12-03T16:18:14.585Z,0
2022-12-03T16:38:18.648Z,-0.1
2022-12-03T16:48:21.121Z,-0.1
2022-12-03T16:58:23.571Z,-0.1
2022-12-03T17:08:26.227Z,-0.1
2022-12-03T17:18:28.182Z,-0.1
2022-12-03T17:28:29.945Z,-0.1
2022-12-03T17:38:37.263Z,-0.1
2022-12-03T17:48:33.542Z,-0.1
2022-12-03T17:58:35.422Z,-0.2
2022-12-03T18:08:37.219Z,-0.2
2022-12-03T18:18:39.366Z,-0.2
2022-12-03T18:28:41.401Z,-0.2
2022-12-03T18:38:43.910Z,-0.3
2022-12-03T18:48:45.781Z,-0.3
2022-12-03T18:58:47.530Z,-0.3
2022-12-03T19:08:49.305Z,-0.3
2022-12-03T19:18:51.268Z,-0.3
2022-12-03T19:38:57.080Z,-0.3
2022-12-03T19:48:57.535Z,-0.3
2022-12-03T19:58:59.773Z,-0.3
2022-12-03T20:09:02.170Z,-0.4
2022-12-03T20:19:03.960Z,-0.4
2022-12-03T20:29:06.380Z,-0.4
2022-12-03T20:39:09.044Z,-0.4
2022-12-03T20:49:11.168Z,-0.4
2022-12-03T20:59:13.018Z,-0.4
2022-12-03T21:09:15.301Z,-0.4
2022-12-03T21:19:17.677Z,-0.4
2022-12-03T21:29:20.326Z,-0.4
2022-12-03T21:39:22.491Z,-0.4
2022-12-03T21:49:24.835Z,-0.4
2022-12-03T21:59:27.404Z,-0.4
2022-12-03T22:09:29.325Z,-0.4
2022-12-03T22:19:31.464Z,-0.4
2022-12-03T22:29:34.114Z,-0.4
2022-12-03T22:39:36.324Z,-0.4
2022-12-03T22:49:38.360Z,-0.4
2022-12-03T22:59:40.853Z,-0.4
2022-12-03T23:09:42.666Z,-0.4
2022-12-03T23:19:44.778Z,-0.3
2022-12-03T23:29:47.060Z,-0.3
2022-12-03T23:39:49.340Z,-0.4
2022-12-03T23:49:51.559Z,-0.4
2022-12-03T23:59:53.604Z,-0.3
